createdAt,value
2023-02-17T00:01:40.100Z,25.00
2023-02-17T00:03:49.091Z,26.48
2023-02-17T00:05:57.024Z,25.02
2023-02-17T00:08:04.153Z,29.52
2023-02-17T00:10:14.097Z,30.73
2023-02-17T00:12:21.229Z,28.60
2023-02-17T00:14:28.357Z,31.77
2023-02-17T00:16:35.134Z,27.60
2023-02-17T00:18:42.516Z,28.60
2023-02-17T00:20:49.630Z,27.50
2023-02-17T00:22:56.675Z,31.88
2023-02-17T00:25:03.804Z,26.73
2023-02-17T00:27:13.444Z,27.90
2023-02-17T00:29:20.780Z,25.73
2023-02-17T00:31:28.128Z,33.05
2023-02-17T00:33:35.196Z,32.03
2023-02-17T00:35:44.383Z,32.30
2023-02-17T00:37:51.565Z,31.20
2023-02-17T00:39:58.644Z,32.75
2023-02-17T00:42:05.824Z,29.73
2023-02-17T00:44:20.529Z,33.58
2023-02-17T00:46:28.280Z,28.45
2023-02-17T00:48:35.494Z,25.50
2023-02-17T00:50:42.841Z,27.20
2023-02-17T00:52:49.671Z,28.45
2023-02-17T00:54:56.846Z,26.70
2023-02-17T00:57:03.721Z,30.48
2023-02-17T00:59:13.620Z,32.53
2023-02-17T01:01:20.742Z,26.77
2023-02-17T01:03:28.697Z,28.33
2023-02-17T01:05:35.775Z,27.48
2023-02-17T01:07:43.112Z,26.10
2023-02-17T01:09:50.135Z,27.58
2023-02-17T01:11:57.346Z,29.10
2023-02-17T01:14:07.202Z,27.80
2023-02-17T01:16:22.818Z,30.73
2023-02-17T01:18:29.618Z,26.98
2023-02-17T01:20:39.052Z,23.27
2023-02-17T01:22:46.235Z,25.20
2023-02-17T01:24:53.674Z,24.92
2023-02-17T01:27:00.494Z,23.60
2023-02-17T01:29:09.373Z,21.52
2023-02-17T01:31:16.511Z,24.10
2023-02-17T01:33:25.316Z,29.17
2023-02-17T01:35:32.345Z,24.73
2023-02-17T01:37:39.884Z,30.67
2023-02-17T01:39:46.815Z,25.60
2023-02-17T01:41:53.871Z,18.65
2023-02-17T01:44:16.940Z,20.25
2023-02-17T01:46:24.085Z,22.63
2023-02-17T01:48:35.706Z,23.58
2023-02-17T01:50:46.632Z,22.95
2023-02-17T01:52:55.039Z,20.38
2023-02-17T01:55:07.949Z,23.33
2023-02-17T01:57:15.882Z,22.38
2023-02-17T01:59:24.873Z,21.33
2023-02-17T02:01:33.224Z,19.63
2023-02-17T02:03:43.437Z,22.00
2023-02-17T02:05:50.254Z,22.25
2023-02-17T02:07:57.592Z,23.65
2023-02-17T02:10:04.730Z,21.48
2023-02-17T02:12:22.976Z,23.65
2023-02-17T02:14:30.965Z,20.85
2023-02-17T02:16:46.859Z,22.23
2023-02-17T02:19:03.133Z,21.92
2023-02-17T02:21:43.917Z,26.75
2023-02-17T02:24:19.617Z,23.17
2023-02-17T02:26:54.609Z,21.00
2023-02-17T02:29:20.885Z,22.33
2023-02-17T02:31:45.251Z,26.05
2023-02-17T02:34:00.112Z,22.30
2023-02-17T02:36:13.454Z,21.80
2023-02-17T02:38:23.604Z,27.98
2023-02-17T02:40:36.061Z,25.30
2023-02-17T02:42:44.832Z,25.63
2023-02-17T02:44:52.521Z,24.50
2023-02-17T02:47:02.215Z,25.77
2023-02-17T02:49:11.803Z,23.63
2023-02-17T02:51:32.160Z,21.83
2023-02-17T02:53:58.452Z,25.17
2023-02-17T02:56:14.772Z,30.05
2023-02-17T02:58:25.635Z,23.52
2023-02-17T03:00:41.828Z,26.85
2023-02-17T03:02:55.036Z,26.58
2023-02-17T03:05:12.830Z,27.52
2023-02-17T03:07:24.200Z,25.42
2023-02-17T03:09:32.063Z,24.67
2023-02-17T03:11:39.240Z,24.35
2023-02-17T03:13:46.626Z,25.27
2023-02-17T03:15:54.833Z,24.40
2023-02-17T03:18:02.378Z,24.63
2023-02-17T03:20:12.577Z,27.50
2023-02-17T03:22:24.639Z,23.00
2023-02-17T03:24:31.813Z,24.02
2023-02-17T03:26:38.623Z,31.48
2023-02-17T03:28:47.018Z,27.67
2023-02-17T03:30:54.062Z,23.50
2023-02-17T03:33:01.453Z,21.80
2023-02-17T03:35:10.524Z,23.05
2023-02-17T03:37:18.380Z,26.48
2023-02-17T03:39:25.604Z,23.65
2023-02-17T03:41:32.432Z,21.85
2023-02-17T03:43:39.562Z,21.17
2023-02-17T03:45:46.798Z,26.02
2023-02-17T03:47:54.238Z,20.88
2023-02-17T03:50:01.366Z,20.13
2023-02-17T03:52:10.486Z,24.00
2023-02-17T03:54:17.617Z,19.08
2023-02-17T03:56:24.786Z,18.58
2023-02-17T03:58:31.929Z,22.13
2023-02-17T04:00:39.215Z,21.08
2023-02-17T04:02:46.187Z,22.40
2023-02-17T04:04:53.071Z,22.45
2023-02-17T04:07:00.586Z,20.52
2023-02-17T04:09:09.318Z,22.75
2023-02-17T04:11:16.602Z,24.30
2023-02-17T04:13:23.529Z,23.23
2023-02-17T04:15:30.950Z,21.10
2023-02-17T04:17:39.170Z,18.25
2023-02-17T04:19:46.250Z,18.65
2023-02-17T04:21:53.076Z,18.92
2023-02-17T04:24:00.253Z,18.23
2023-02-17T04:26:10.358Z,19.05
2023-02-17T04:28:18.150Z,22.13
2023-02-17T04:30:25.452Z,17.85
2023-02-17T04:32:32.922Z,19.77
2023-02-17T04:34:40.055Z,22.50
2023-02-17T04:36:47.188Z,19.67
2023-02-17T04:38:54.221Z,16.40
2023-02-17T04:41:02.451Z,19.50
2023-02-17T04:43:11.934Z,20.38
2023-02-17T04:45:19.036Z,18.40
2023-02-17T04:47:26.406Z,18.23
2023-02-17T04:49:33.452Z,18.35
2023-02-17T04:51:40.883Z,20.15
2023-02-17T04:53:47.707Z,18.52
2023-02-17T04:55:56.464Z,20.23
2023-02-17T04:58:03.760Z,21.50
2023-02-17T05:00:15.043Z,18.77
2023-02-17T05:02:21.915Z,19.65
2023-02-17T05:04:29.128Z,18.40
2023-02-17T05:06:35.865Z,19.38
2023-02-17T05:08:43.252Z,22.50
2023-02-17T05:10:50.896Z,19.40
2023-02-17T05:12:58.230Z,19.40
2023-02-17T05:15:05.413Z,18.42
2023-02-17T05:17:14.231Z,19.40
2023-02-17T05:19:21.363Z,20.60
2023-02-17T05:21:28.601Z,19.58
2023-02-17T05:23:35.674Z,18.38
2023-02-17T05:25:43.341Z,20.20
2023-02-17T05:27:50.096Z,18.98
2023-02-17T05:29:57.252Z,19.60
2023-02-17T05:32:04.030Z,99.97
2023-02-17T05:34:12.813Z,36.58
2023-02-17T05:36:20.816Z,18.38
2023-02-17T05:38:28.201Z,21.73
2023-02-17T05:40:35.086Z,17.75
2023-02-17T05:42:42.357Z,20.75
2023-02-17T05:44:49.334Z,21.85
2023-02-17T05:46:56.517Z,19.55
2023-02-17T05:49:03.344Z,17.40
2023-02-17T05:51:14.776Z,17.52
2023-02-17T05:53:22.313Z,18.13
2023-02-17T05:55:29.347Z,17.92
2023-02-17T05:57:36.153Z,15.60
2023-02-17T05:59:43.502Z,17.13
2023-02-17T06:01:50.529Z,21.23
2023-02-17T06:03:57.914Z,19.52
2023-02-17T06:06:05.028Z,17.65
2023-02-17T06:08:13.969Z,19.55
2023-02-17T06:10:21.204Z,18.67
2023-02-17T06:12:28.844Z,17.17
2023-02-17T06:14:35.925Z,18.42
2023-02-17T06:16:43.311Z,19.48
2023-02-17T06:18:50.426Z,18.73
2023-02-17T06:20:59.414Z,18.98
2023-02-17T06:23:06.442Z,16.88
2023-02-17T06:25:15.264Z,17.55
2023-02-17T06:27:22.189Z,18.63
2023-02-17T06:29:30.189Z,17.88
2023-02-17T06:31:37.235Z,15.65
2023-02-17T06:33:44.652Z,21.50
2023-02-17T06:35:52.970Z,18.27
2023-02-17T06:38:00.143Z,17.55
2023-02-17T06:40:07.526Z,18.00
2023-02-17T06:42:16.296Z,16.63
2023-02-17T06:44:23.270Z,19.65
2023-02-17T06:46:30.657Z,16.63
2023-02-17T06:48:37.900Z,20.17
2023-02-17T06:50:45.379Z,16.60
2023-02-17T06:52:52.253Z,16.75
2023-02-17T06:54:59.470Z,18.15
2023-02-17T06:57:06.336Z,17.83
2023-02-17T06:59:14.979Z,17.83
2023-02-17T07:01:23.129Z,15.98
2023-02-17T07:03:30.262Z,17.35
2023-02-17T07:05:39.119Z,20.05
2023-02-17T07:07:46.367Z,16.95
2023-02-17T07:09:53.549Z,19.33
2023-02-17T07:12:01.657Z,18.05
2023-02-17T07:14:09.044Z,17.63
2023-02-17T07:16:18.864Z,14.85
2023-02-17T07:18:25.810Z,23.25
2023-02-17T07:20:33.462Z,16.77
2023-02-17T07:22:40.892Z,18.48
2023-02-17T07:24:47.927Z,16.98
2023-02-17T07:26:57.139Z,21.20
2023-02-17T07:29:04.011Z,19.77
2023-02-17T07:31:11.930Z,16.63
2023-02-17T07:33:20.740Z,17.73
2023-02-17T07:35:27.977Z,16.35
2023-02-17T07:37:35.209Z,18.13
2023-02-17T07:39:42.182Z,17.38
2023-02-17T07:41:48.951Z,19.35
2023-02-17T07:43:59.156Z,18.00
2023-02-17T07:46:07.598Z,19.45
2023-02-17T07:48:14.950Z,17.15
2023-02-17T07:50:24.184Z,16.00
2023-02-17T07:52:32.950Z,15.27
2023-02-17T07:54:41.615Z,16.70
2023-02-17T07:56:48.795Z,16.45
2023-02-17T07:58:56.079Z,16.10
2023-02-17T08:01:08.009Z,16.40
2023-02-17T08:03:15.460Z,17.38
2023-02-17T08:05:24.078Z,17.65
2023-02-17T08:07:31.207Z,15.70
2023-02-17T08:09:54.925Z,16.52
2023-02-17T08:12:19.106Z,15.63
2023-02-17T08:14:27.421Z,15.60
2023-02-17T08:16:34.635Z,16.38
2023-02-17T08:18:41.425Z,16.10
2023-02-17T08:20:51.481Z,18.40
2023-02-17T08:22:58.414Z,18.08
2023-02-17T08:25:07.059Z,14.75
2023-02-17T08:27:14.390Z,14.90
2023-02-17T08:29:21.985Z,15.32
2023-02-17T08:31:31.694Z,16.00
2023-02-17T08:33:38.860Z,14.60
2023-02-17T08:35:45.999Z,20.20
2023-02-17T08:37:55.064Z,14.65
2023-02-17T08:40:02.201Z,17.35
2023-02-17T08:42:10.095Z,16.65
2023-02-17T08:44:18.336Z,16.02
2023-02-17T08:46:26.452Z,15.40
2023-02-17T08:48:35.859Z,15.77
2023-02-17T08:50:44.077Z,16.45
2023-02-17T08:52:51.071Z,15.32
2023-02-17T08:55:00.215Z,17.63
2023-02-17T08:57:07.053Z,15.10
2023-02-17T08:59:15.742Z,15.05
2023-02-17T09:01:23.740Z,14.45
2023-02-17T09:03:31.673Z,14.45
2023-02-17T09:05:38.729Z,13.25
2023-02-17T09:07:46.197Z,14.70
2023-02-17T09:09:53.337Z,12.85
2023-02-17T09:12:02.594Z,15.00
2023-02-17T09:14:10.104Z,13.02
2023-02-17T09:16:19.880Z,15.52
2023-02-17T09:18:27.559Z,16.52
2023-02-17T09:20:34.895Z,13.00
2023-02-17T09:22:41.995Z,15.50
2023-02-17T09:24:49.004Z,15.68
2023-02-17T09:26:57.651Z,16.30
2023-02-17T09:29:06.796Z,18.02
2023-02-17T09:31:15.578Z,16.58
2023-02-17T09:33:22.735Z,16.77
2023-02-17T09:35:30.785Z,14.65
2023-02-17T09:37:37.721Z,14.48
2023-02-17T09:39:45.051Z,15.25
2023-02-17T09:41:56.222Z,16.23
2023-02-17T09:44:06.119Z,15.18
2023-02-17T09:46:18.997Z,14.40
2023-02-17T09:48:30.055Z,17.88
2023-02-17T09:50:42.358Z,16.63
2023-02-17T09:52:56.369Z,14.20
2023-02-17T09:55:09.832Z,16.17
2023-02-17T09:57:21.858Z,16.98
2023-02-17T09:59:35.476Z,18.25
2023-02-17T10:01:44.683Z,14.35
2023-02-17T10:03:56.692Z,17.63
2023-02-17T10:06:14.645Z,15.70
2023-02-17T10:08:25.491Z,18.70
2023-02-17T10:10:38.341Z,16.23
2023-02-17T10:12:50.698Z,16.75
2023-02-17T10:17:11.382Z,16.23
2023-02-17T10:19:24.126Z,16.80
2023-02-17T10:21:34.374Z,19.45
2023-02-17T10:23:41.874Z,16.98
2023-02-17T10:26:20.962Z,17.70
2023-02-17T10:28:38.714Z,17.02
2023-02-17T10:30:52.932Z,16.52
2023-02-17T10:33:20.278Z,16.85
2023-02-17T10:35:34.016Z,17.88
2023-02-17T10:37:51.325Z,19.60
2023-02-17T10:40:00.297Z,16.30
2023-02-17T10:42:08.864Z,16.13
2023-02-17T10:44:21.332Z,14.50
2023-02-17T10:46:34.636Z,17.70
2023-02-17T10:48:48.326Z,17.85
2023-02-17T10:50:57.095Z,17.75
2023-02-17T10:53:05.198Z,15.23
2023-02-17T10:55:23.230Z,19.13
2023-02-17T10:57:36.099Z,18.05
2023-02-17T10:59:44.867Z,17.77
2023-02-17T11:01:53.943Z,18.13
2023-02-17T11:04:05.364Z,16.52
2023-02-17T11:06:21.825Z,18.27
2023-02-17T11:08:35.047Z,18.05
2023-02-17T11:10:44.688Z,20.80
2023-02-17T11:12:52.863Z,20.67
2023-02-17T11:15:00.491Z,23.08
2023-02-17T11:17:19.749Z,27.27
2023-02-17T11:19:30.060Z,34.05
2023-02-17T11:21:37.229Z,25.92
2023-02-17T11:23:52.663Z,22.63
2023-02-17T11:26:02.261Z,18.38
2023-02-17T11:28:13.834Z,26.80
2023-02-17T11:30:21.968Z,19.63
2023-02-17T11:32:37.210Z,31.25
2023-02-17T11:34:46.542Z,30.27
2023-02-17T11:37:02.940Z,21.23
2023-02-17T11:39:22.624Z,24.05
2023-02-17T11:41:29.747Z,26.00
2023-02-17T11:43:38.107Z,23.48
2023-02-17T11:45:52.035Z,25.60
2023-02-17T11:48:28.886Z,24.02
2023-02-17T11:50:43.226Z,24.85
2023-02-17T11:53:06.635Z,27.50
2023-02-17T11:55:23.391Z,35.20
2023-02-17T11:57:42.467Z,30.45
2023-02-17T12:00:04.376Z,45.08
2023-02-17T12:02:29.431Z,49.30
2023-02-17T12:04:41.347Z,63.38
2023-02-17T12:06:55.617Z,69.47
2023-02-17T12:09:12.173Z,58.47
2023-02-17T12:11:25.495Z,56.30
2023-02-17T12:13:47.375Z,46.53
2023-02-17T12:18:19.087Z,73.90
2023-02-17T12:20:50.743Z,73.68
2023-02-17T12:23:07.140Z,63.85
2023-02-17T12:25:28.300Z,159.82
2023-02-17T12:27:47.465Z,138.65
2023-02-17T12:30:09.213Z,103.97
2023-02-17T12:32:33.573Z,65.35
2023-02-17T12:34:44.527Z,56.40
2023-02-17T12:36:54.641Z,50.88
2023-02-17T12:39:05.509Z,59.97
2023-02-17T12:41:18.174Z,48.47
2023-02-17T12:43:30.012Z,44.13
2023-02-17T12:45:43.011Z,41.42
2023-02-17T12:47:57.120Z,52.08
2023-02-17T12:50:09.066Z,55.63
2023-02-17T12:52:22.750Z,49.30
2023-02-17T12:54:35.154Z,45.47
2023-02-17T12:56:59.081Z,34.88
2023-02-17T12:59:17.738Z,38.50
2023-02-17T13:01:27.518Z,41.83
2023-02-17T13:03:35.579Z,36.72
2023-02-17T13:05:47.930Z,38.67
2023-02-17T13:08:02.944Z,38.20
2023-02-17T13:10:21.236Z,39.10
2023-02-17T13:12:41.834Z,39.65
2023-02-17T13:14:50.557Z,33.53
2023-02-17T13:16:58.140Z,34.28
2023-02-17T13:19:11.468Z,33.63
2023-02-17T13:21:30.531Z,33.67
2023-02-17T13:23:44.321Z,33.20
2023-02-17T13:26:22.272Z,36.22
2023-02-17T13:28:40.716Z,33.50
2023-02-17T13:30:53.223Z,31.15
2023-02-17T13:33:05.934Z,27.95
2023-02-17T13:35:36.008Z,29.60
2023-02-17T13:37:46.162Z,29.63
2023-02-17T13:39:54.976Z,31.45
2023-02-17T13:42:03.278Z,33.22
2023-02-17T13:44:31.452Z,29.05
2023-02-17T13:46:41.551Z,29.10
2023-02-17T13:48:48.939Z,30.63
2023-02-17T13:50:57.501Z,29.17
2023-02-17T13:53:05.915Z,29.50
2023-02-17T13:55:24.819Z,31.85
2023-02-17T13:57:33.028Z,27.35
2023-02-17T13:59:39.794Z,31.13
2023-02-17T14:01:48.067Z,34.70
2023-02-17T14:03:57.180Z,33.83
2023-02-17T14:06:06.392Z,26.88
2023-02-17T14:08:20.449Z,27.52
2023-02-17T14:10:30.754Z,31.42
2023-02-17T14:12:37.628Z,29.95
2023-02-17T14:14:46.762Z,30.00
2023-02-17T14:17:02.543Z,35.80
2023-02-17T14:19:11.360Z,39.38
2023-02-17T14:21:29.598Z,33.45
2023-02-17T14:23:53.227Z,35.50
2023-02-17T14:26:11.861Z,37.42
2023-02-17T14:28:23.864Z,40.42
2023-02-17T14:30:35.814Z,38.45
2023-02-17T14:32:43.563Z,31.27
2023-02-17T14:34:50.524Z,33.30
2023-02-17T14:36:57.911Z,31.08
2023-02-17T14:39:05.608Z,33.33
2023-02-17T14:41:14.443Z,33.95
2023-02-17T14:43:21.247Z,36.03
2023-02-17T14:45:28.434Z,39.85
2023-02-17T14:47:35.307Z,33.35
2023-02-17T14:49:42.386Z,36.72
2023-02-17T14:51:49.402Z,34.35
2023-02-17T14:53:56.953Z,39.47
2023-02-17T14:56:06.720Z,43.40
2023-02-17T14:58:21.818Z,36.17
2023-02-17T15:00:28.800Z,38.33
2023-02-17T15:02:36.473Z,37.45
2023-02-17T15:04:43.537Z,32.97
2023-02-17T15:06:52.628Z,39.63
2023-02-17T15:08:59.875Z,41.55
2023-02-17T15:11:09.015Z,44.95
2023-02-17T15:13:19.728Z,47.33
2023-02-17T15:15:27.578Z,42.13
2023-02-17T15:17:35.260Z,38.05
2023-02-17T15:19:45.036Z,36.33
2023-02-17T15:21:54.329Z,39.55
2023-02-17T15:24:02.857Z,36.38
2023-02-17T15:26:13.610Z,33.03
2023-02-17T15:28:23.814Z,41.28
2023-02-17T15:30:30.936Z,43.28
2023-02-17T15:32:38.380Z,38.20
2023-02-17T15:34:45.138Z,40.83
2023-02-17T15:36:52.228Z,42.35
2023-02-17T15:38:59.256Z,38.90
2023-02-17T15:41:07.154Z,39.83
2023-02-17T15:43:20.479Z,39.53
2023-02-17T15:45:29.871Z,45.22
2023-02-17T15:47:36.951Z,42.00
2023-02-17T15:49:44.132Z,39.45
2023-02-17T15:51:51.253Z,34.38
2023-02-17T15:53:58.579Z,39.90
2023-02-17T15:56:05.857Z,36.28
2023-02-17T15:58:17.712Z,34.95
2023-02-17T16:00:29.551Z,33.40
2023-02-17T16:04:43.201Z,34.75
2023-02-17T16:06:50.385Z,38.72
2023-02-17T16:08:59.774Z,36.47
2023-02-17T16:11:07.100Z,37.53
2023-02-17T16:13:17.313Z,39.65
2023-02-17T16:15:25.975Z,43.25
2023-02-17T16:17:35.665Z,45.90
2023-02-17T16:19:42.961Z,40.63
2023-02-17T16:21:50.187Z,43.75
2023-02-17T16:26:06.652Z,40.40
2023-02-17T16:28:17.924Z,46.63
2023-02-17T16:30:35.475Z,38.95
2023-02-17T16:32:44.149Z,44.33
2023-02-17T16:34:51.947Z,42.30
2023-02-17T16:37:02.268Z,40.40
2023-02-17T16:39:16.411Z,45.03
2023-02-17T16:41:24.821Z,47.65
2023-02-17T16:43:32.058Z,43.30
2023-02-17T16:45:39.242Z,37.78
2023-02-17T16:47:51.439Z,43.88
2023-02-17T16:52:05.345Z,53.33
2023-02-17T16:54:13.695Z,53.90
2023-02-17T16:56:27.008Z,49.75
2023-02-17T16:58:33.995Z,48.83
2023-02-17T17:00:41.386Z,37.85
2023-02-17T17:02:51.465Z,38.92
2023-02-17T17:04:59.129Z,46.10
2023-02-17T17:07:06.254Z,35.80
2023-02-17T17:09:19.437Z,36.38
2023-02-17T17:11:29.475Z,39.63
2023-02-17T17:13:36.861Z,31.45
2023-02-17T17:15:46.924Z,35.65
2023-02-17T17:18:00.595Z,34.42
2023-02-17T17:20:08.446Z,32.40
2023-02-17T17:22:15.878Z,34.15
2023-02-17T17:24:22.983Z,32.88
2023-02-17T17:26:35.155Z,36.53
2023-02-17T17:30:48.912Z,38.85
2023-02-17T17:32:57.778Z,38.85
2023-02-17T17:35:05.060Z,36.13
2023-02-17T17:37:14.476Z,36.60
2023-02-17T17:39:22.806Z,35.15
2023-02-17T17:41:31.132Z,36.70
2023-02-17T17:43:38.344Z,41.25
2023-02-17T17:45:45.198Z,42.22
2023-02-17T17:47:52.554Z,43.20
2023-02-17T17:50:01.428Z,39.80
2023-02-17T17:52:08.689Z,42.67
2023-02-17T17:54:16.152Z,40.53
2023-02-17T17:56:26.094Z,41.95
2023-02-17T17:58:34.697Z,39.53
2023-02-17T18:00:42.255Z,42.50
2023-02-17T18:02:49.130Z,39.17
2023-02-17T18:04:56.324Z,42.30
2023-02-17T18:07:05.344Z,40.05
2023-02-17T18:09:30.865Z,39.13
2023-02-17T18:11:40.130Z,39.67
2023-02-17T18:13:48.896Z,43.22
2023-02-17T18:15:56.321Z,45.17
2023-02-17T18:18:03.931Z,39.28
2023-02-17T18:20:12.579Z,47.60
2023-02-17T18:22:21.922Z,44.53
2023-02-17T18:24:29.240Z,43.42
2023-02-17T18:26:36.875Z,41.83
2023-02-17T18:28:43.825Z,43.17
2023-02-17T18:30:51.225Z,39.65
2023-02-17T18:32:58.132Z,40.60
2023-02-17T18:35:05.674Z,43.90
2023-02-17T18:37:13.059Z,39.70
2023-02-17T18:39:22.390Z,44.72
2023-02-17T18:41:31.977Z,44.58
2023-02-17T18:43:39.362Z,42.63
2023-02-17T18:45:46.393Z,44.78
2023-02-17T18:47:53.834Z,40.08
2023-02-17T18:50:00.712Z,43.30
2023-02-17T18:52:08.140Z,44.58
2023-02-17T18:54:15.734Z,49.83
2023-02-17T18:56:26.189Z,43.05
2023-02-17T18:58:33.200Z,47.92
2023-02-17T19:00:40.295Z,44.35
2023-02-17T19:02:47.368Z,46.35
2023-02-17T19:04:56.964Z,45.90
2023-02-17T19:07:05.065Z,41.65
2023-02-17T19:09:12.400Z,45.55
2023-02-17T19:11:20.713Z,44.00
2023-02-17T19:13:29.782Z,40.75
2023-02-17T19:15:36.633Z,42.70
2023-02-17T19:17:44.148Z,42.83
2023-02-17T19:19:51.019Z,44.35
2023-02-17T19:21:58.470Z,43.05
2023-02-17T19:24:05.331Z,47.03
2023-02-17T19:26:14.471Z,41.85
2023-02-17T19:28:21.851Z,41.13
2023-02-17T19:30:30.472Z,44.88
2023-02-17T19:32:37.643Z,38.67
2023-02-17T19:34:44.675Z,45.17
2023-02-17T19:36:52.009Z,42.53
2023-02-17T19:38:59.958Z,44.22
2023-02-17T19:41:07.859Z,38.53
2023-02-17T19:43:14.938Z,41.28
2023-02-17T19:45:22.221Z,38.97
2023-02-17T19:47:31.916Z,42.67
2023-02-17T19:49:39.301Z,44.97
2023-02-17T19:51:46.131Z,40.75
2023-02-17T19:53:53.304Z,38.13
2023-02-17T19:56:11.380Z,40.53
2023-02-17T19:58:19.035Z,39.83
2023-02-17T20:00:26.013Z,37.28
2023-02-17T20:02:34.855Z,37.50
2023-02-17T20:04:42.110Z,42.50
2023-02-17T20:06:50.409Z,47.00
2023-02-17T20:08:59.145Z,41.53
2023-02-17T20:11:09.248Z,42.40
2023-02-17T20:13:16.269Z,44.72
2023-02-17T20:15:23.758Z,35.72
2023-02-17T20:17:30.580Z,39.63
2023-02-17T20:19:40.681Z,39.72
2023-02-17T20:21:47.766Z,39.65
2023-02-17T20:23:55.964Z,42.92
2023-02-17T20:26:07.176Z,42.60
2023-02-17T20:28:14.526Z,40.90
2023-02-17T20:30:21.889Z,40.90
2023-02-17T20:32:29.380Z,39.70
2023-02-17T20:34:40.401Z,40.63
2023-02-17T20:36:47.467Z,41.03
2023-02-17T20:38:54.838Z,39.17
2023-02-17T20:41:02.996Z,40.33
2023-02-17T20:43:13.250Z,41.17
2023-02-17T20:45:20.431Z,40.35
2023-02-17T20:47:27.665Z,38.25
2023-02-17T20:49:35.052Z,38.88
2023-02-17T20:51:44.127Z,39.47
2023-02-17T20:53:52.101Z,45.25
2023-02-17T20:55:59.063Z,39.83
2023-02-17T20:58:06.475Z,41.38
2023-02-17T21:00:18.128Z,39.20
